createdAt,value
2017-05-16T00:00:02.902Z,0
2017-05-16T00:05:03.417Z,0
2017-05-16T00:10:03.100Z,0
2017-05-16T00:15:02.965Z,0
2017-05-16T00:20:02.590Z,0
2017-05-16T00:25:03.230Z,0
2017-05-16T00:30:03.016Z,0
2017-05-16T00:35:02.698Z,0
2017-05-16T00:40:02.594Z,0
2017-05-16T00:45:03.169Z,0
2017-05-16T00:50:02.905Z,0
2017-05-16T00:55:02.678Z,0
2017-05-16T01:00:02.509Z,0
2017-05-16T01:05:03.112Z,0
2017-05-16T01:10:02.919Z,0
2017-05-16T01:15:09.580Z,0
2017-05-16T01:20:03.294Z,0
2017-05-16T01:25:03.144Z,0
2017-05-16T01:30:02.988Z,0
2017-05-16T01:35:02.750Z,0
2017-05-16T01:40:02.646Z,0
2017-05-16T01:45:03.336Z,0
2017-05-16T01:50:03.145Z,0
2017-05-16T01:55:02.768Z,0
2017-05-16T02:00:03.334Z,0
2017-05-16T02:05:02.965Z,0
2017-05-16T02:10:02.934Z,0
2017-05-16T02:15:02.596Z,0
2017-05-16T02:20:03.365Z,0
2017-05-16T02:25:03.089Z,0
2017-05-16T02:30:02.702Z,0
2017-05-16T02:35:02.553Z,0
2017-05-16T02:40:03.185Z,0
2017-05-16T02:45:02.735Z,0
2017-05-16T02:50:02.543Z,0
2017-05-16T02:55:03.108Z,0
2017-05-16T03:00:02.942Z,0
2017-05-16T03:05:02.779Z,0
2017-05-16T03:10:02.701Z,1
2017-05-16T03:15:03.442Z,3
2017-05-16T03:20:03.306Z,7
2017-05-16T03:25:03.083Z,12
2017-05-16T03:30:02.703Z,25
2017-05-16T03:35:03.351Z,39
2017-05-16T03:40:03.007Z,58
2017-05-16T03:45:02.844Z,128
2017-05-16T03:50:02.724Z,293
2017-05-16T03:55:02.760Z,377
2017-05-16T04:00:02.515Z,431
2017-05-16T04:05:03.084Z,471
2017-05-16T04:10:02.946Z,494
2017-05-16T04:15:05.735Z,417
2017-05-16T04:20:02.507Z,368
2017-05-16T04:25:03.341Z,395
2017-05-16T04:30:02.909Z,448
2017-05-16T04:35:02.665Z,574
2017-05-16T04:40:03.323Z,661
2017-05-16T04:45:03.163Z,741
2017-05-16T04:50:02.953Z,814
2017-05-16T04:55:02.764Z,910
2017-05-16T05:00:02.560Z,1000
2017-05-16T05:05:03.416Z,1000
2017-05-16T05:10:03.028Z,1000
2017-05-16T05:15:02.848Z,1000
2017-05-16T05:20:02.527Z,1000
2017-05-16T05:25:03.329Z,2000
2017-05-16T05:30:03.134Z,2000
2017-05-16T05:35:02.803Z,2000
2017-05-16T05:40:02.672Z,2000
2017-05-16T05:45:02.468Z,3000
2017-05-16T05:50:03.333Z,3000
2017-05-16T05:55:03.123Z,4000
2017-05-16T06:00:02.953Z,4000
2017-05-16T06:05:02.519Z,4000
2017-05-16T06:10:03.196Z,4000
2017-05-16T06:15:02.824Z,4000
2017-05-16T06:20:02.591Z,4000
2017-05-16T06:25:03.191Z,4000
2017-05-16T06:30:03.033Z,5000
2017-05-16T06:35:02.857Z,6000
2017-05-16T06:40:02.716Z,7000
2017-05-16T06:45:03.329Z,8000
2017-05-16T06:50:03.127Z,8000
2017-05-16T06:55:02.708Z,8000
2017-05-16T07:00:03.303Z,8000
2017-05-16T07:05:03.134Z,8000
2017-05-16T07:10:02.811Z,8000
2017-05-16T07:15:02.735Z,8000
2017-05-16T07:20:02.608Z,7000
2017-05-16T07:25:03.182Z,8000
2017-05-16T07:30:02.749Z,8000
2017-05-16T07:35:02.477Z,9000
2017-05-16T07:40:03.090Z,9000
2017-05-16T07:45:03.300Z,9000
2017-05-16T07:50:02.999Z,10000
2017-05-16T07:55:02.745Z,10000
2017-05-16T08:00:02.517Z,9000
2017-05-16T08:05:03.257Z,11000
2017-05-16T08:10:02.895Z,11000
2017-05-16T08:15:02.720Z,11000
2017-05-16T08:20:02.753Z,14000
2017-05-16T08:25:03.102Z,15000
2017-05-16T08:30:03.424Z,13000
2017-05-16T08:35:03.415Z,14000
2017-05-16T08:40:02.904Z,17000
2017-05-16T08:45:02.999Z,18000
2017-05-16T08:50:02.545Z,21000
2017-05-16T08:55:03.360Z,24000
2017-05-16T09:00:02.827Z,27000
2017-05-16T09:05:03.319Z,28000
2017-05-16T09:10:02.875Z,25000
2017-05-16T09:15:02.660Z,30000
2017-05-16T09:20:03.409Z,50000
2017-05-16T09:25:02.584Z,33000
2017-05-16T09:30:02.850Z,31000
2017-05-16T09:35:02.692Z,31000
2017-05-16T09:40:03.234Z,33000
2017-05-16T09:45:02.599Z,30000
2017-05-16T09:50:03.225Z,27000
2017-05-16T09:55:02.693Z,24000
2017-05-16T10:00:02.805Z,25000
2017-05-16T10:05:03.035Z,22000
2017-05-16T10:10:02.500Z,22000
2017-05-16T10:15:02.704Z,24000
2017-05-16T10:20:02.578Z,22000
2017-05-16T10:25:02.656Z,21000
2017-05-16T10:30:03.076Z,22000
2017-05-16T10:35:03.267Z,21000
2017-05-16T10:40:02.709Z,31000
2017-05-16T10:45:02.564Z,31000
2017-05-16T10:50:03.003Z,50000
2017-05-16T10:55:03.114Z,50000
2017-05-16T11:00:02.617Z,64000
2017-05-16T11:05:03.434Z,65000
2017-05-16T11:10:02.987Z,54000
2017-05-16T11:15:02.547Z,54000
2017-05-16T11:20:03.067Z,41000
2017-05-16T11:25:03.119Z,34000
2017-05-16T11:30:02.695Z,34000
2017-05-16T11:35:03.116Z,32000
2017-05-16T11:40:02.724Z,27000
2017-05-16T11:45:03.464Z,31000
2017-05-16T11:50:02.934Z,31000
2017-05-16T11:55:03.157Z,30000
2017-05-16T12:00:03.187Z,32000
2017-05-16T12:05:03.182Z,61000
2017-05-16T12:10:02.668Z,53000
2017-05-16T12:15:03.318Z,50000
2017-05-16T12:20:02.928Z,50000
2017-05-16T12:25:02.820Z,56000
2017-05-16T12:30:03.267Z,20000
2017-05-16T12:35:03.274Z,33000
2017-05-16T12:40:03.195Z,27000
2017-05-16T12:45:02.957Z,27000
2017-05-16T12:50:02.622Z,24000
2017-05-16T12:55:03.090Z,23000
2017-05-16T13:00:02.796Z,27000
2017-05-16T13:05:03.118Z,16000
2017-05-16T13:10:02.745Z,39000
2017-05-16T13:15:02.586Z,31000
2017-05-16T13:20:02.892Z,15000
2017-05-16T13:25:03.262Z,11000
2017-05-16T13:30:02.973Z,12000
2017-05-16T13:35:03.223Z,14000
2017-05-16T13:40:02.976Z,12000
2017-05-16T13:45:03.387Z,11000
2017-05-16T13:50:02.705Z,10000
2017-05-16T13:55:03.115Z,7000
2017-05-16T14:00:02.833Z,7000
2017-05-16T14:05:03.276Z,10000
2017-05-16T14:10:02.943Z,8000
2017-05-16T14:15:02.502Z,9000
2017-05-16T14:20:02.986Z,9000
2017-05-16T14:25:02.593Z,13000
2017-05-16T14:30:03.333Z,12000
2017-05-16T14:35:03.027Z,9000
2017-05-16T14:40:02.515Z,8000
2017-05-16T14:45:03.008Z,7000
2017-05-16T14:50:02.734Z,6000
2017-05-16T14:55:03.247Z,7000
2017-05-16T15:00:02.781Z,8000
2017-05-16T15:05:03.282Z,7000
2017-05-16T15:10:03.076Z,5000
2017-05-16T15:15:02.773Z,4000
2017-05-16T15:20:02.691Z,5000
2017-05-16T15:25:02.808Z,6000
2017-05-16T15:30:03.249Z,6000
2017-05-16T15:35:02.995Z,6000
2017-05-16T15:40:02.942Z,5000
2017-05-16T15:45:02.863Z,4000
2017-05-16T15:50:02.751Z,3000
2017-05-16T15:55:02.596Z,4000
2017-05-16T16:00:03.395Z,5000
2017-05-16T16:05:03.240Z,4000
2017-05-16T16:10:03.409Z,4000
2017-05-16T16:15:02.636Z,3000
2017-05-16T16:20:03.147Z,3000
2017-05-16T16:25:02.790Z,2000
2017-05-16T16:30:02.478Z,2000
2017-05-16T16:35:03.137Z,2000
2017-05-16T16:40:02.469Z,3000
2017-05-16T16:45:03.207Z,3000
2017-05-16T16:50:03.429Z,3000
2017-05-16T16:55:03.200Z,2000
2017-05-16T17:00:02.474Z,2000
2017-05-16T17:05:02.619Z,2000
2017-05-16T17:10:03.184Z,3000
2017-05-16T17:15:03.276Z,4000
2017-05-16T17:20:02.552Z,3000
2017-05-16T17:25:03.062Z,3000
2017-05-16T17:30:02.651Z,2000
2017-05-16T17:35:02.596Z,2000
2017-05-16T17:40:03.137Z,2000
2017-05-16T17:45:03.365Z,2000
2017-05-16T17:50:03.304Z,2000
2017-05-16T17:55:02.489Z,2000
2017-05-16T18:00:03.316Z,1000
2017-05-16T18:05:03.211Z,1000
2017-05-16T18:10:03.182Z,1000
2017-05-16T18:15:03.187Z,1000
2017-05-16T18:20:03.296Z,1000
2017-05-16T18:25:03.292Z,1000
2017-05-16T18:30:03.335Z,1000
2017-05-16T18:35:03.157Z,1000
2017-05-16T18:40:03.104Z,924
2017-05-16T18:45:03.363Z,702
2017-05-16T18:50:02.527Z,608
2017-05-16T18:55:02.554Z,515
2017-05-16T19:00:02.833Z,430
2017-05-16T19:05:02.549Z,322
2017-05-16T19:10:02.498Z,199
2017-05-16T19:15:03.244Z,87
2017-05-16T19:20:03.152Z,66
2017-05-16T19:25:03.003Z,55
2017-05-16T19:30:02.929Z,41
2017-05-16T19:35:02.834Z,31
2017-05-16T19:40:02.755Z,19
2017-05-16T19:45:02.756Z,10
2017-05-16T19:50:03.439Z,5
2017-05-16T19:55:03.375Z,3
2017-05-16T20:00:03.206Z,1
2017-05-16T20:05:02.956Z,0
2017-05-16T20:10:02.977Z,0
2017-05-16T20:15:02.893Z,0
2017-05-16T20:20:03.290Z,0
2017-05-16T20:25:03.215Z,0
2017-05-16T20:30:03.189Z,0
2017-05-16T20:35:03.257Z,0
2017-05-16T20:40:02.538Z,0
2017-05-16T20:45:03.260Z,0
2017-05-16T20:50:03.198Z,0
2017-05-16T20:55:03.455Z,0
2017-05-16T21:00:02.882Z,0
2017-05-16T21:05:02.751Z,0
2017-05-16T21:10:02.764Z,0
2017-05-16T21:15:03.473Z,0
2017-05-16T21:20:03.282Z,0
2017-05-16T21:25:02.958Z,0
2017-05-16T21:30:02.510Z,0
2017-05-16T21:35:03.373Z,0
2017-05-16T21:40:03.131Z,0
2017-05-16T21:45:02.849Z,0
2017-05-16T21:50:02.639Z,0
2017-05-16T21:55:03.364Z,0
2017-05-16T22:00:02.978Z,0
2017-05-16T22:05:02.755Z,0
2017-05-16T22:10:03.390Z,0
2017-05-16T22:15:02.971Z,0
2017-05-16T22:20:02.543Z,0
2017-05-16T22:25:03.310Z,0
2017-05-16T22:30:02.924Z,0
2017-05-16T22:35:02.575Z,0
2017-05-16T22:40:03.228Z,0
2017-05-16T22:45:02.773Z,0
2017-05-16T22:50:02.547Z,0
2017-05-16T22:55:03.341Z,0
2017-05-16T23:00:02.877Z,0
2017-05-16T23:05:02.711Z,0
2017-05-16T23:10:03.389Z,0
2017-05-16T23:20:03.599Z,0
2017-05-16T23:25:02.724Z,0
2017-05-16T23:30:03.403Z,0
2017-05-16T23:35:03.045Z,0
2017-05-16T23:40:02.780Z,0
2017-05-16T23:45:03.379Z,0
2017-05-16T23:50:03.004Z,0
2017-05-16T23:55:09.795Z,0
